sensor_id;sensor_type;location;lat;lon;timestamp;temperature;humidity
44537;DHT22;30245;51.966;6.292;2022-11-15T00:01:39;14.00;59.50
44537;DHT22;30245;51.966;6.292;2022-11-15T00:04:06;13.90;59.60
44537;DHT22;30245;51.966;6.292;2022-11-15T00:06:32;13.90;59.80
44537;DHT22;30245;51.966;6.292;2022-11-15T00:08:58;13.90;60.00
44537;DHT22;30245;51.966;6.292;2022-11-15T00:11:24;13.90;60.10
44537;DHT22;30245;51.966;6.292;2022-11-15T00:13:50;13.90;60.30
44537;DHT22;30245;51.966;6.292;2022-11-15T00:16:16;13.80;60.30
44537;DHT22;30245;51.966;6.292;2022-11-15T00:18:41;13.90;60.50
44537;DHT22;30245;51.966;6.292;2022-11-15T00:21:10;13.90;60.50
44537;DHT22;30245;51.966;6.292;2022-11-15T00:23:36;13.90;60.60
44537;DHT22;30245;51.966;6.292;2022-11-15T00:26:02;14.00;60.50
44537;DHT22;30245;51.966;6.292;2022-11-15T00:28:29;14.00;60.70
44537;DHT22;30245;51.966;6.292;2022-11-15T00:31:04;14.00;60.60
44537;DHT22;30245;51.966;6.292;2022-11-15T00:33:30;14.00;60.60
44537;DHT22;30245;51.966;6.292;2022-11-15T00:36:07;14.00;60.50
44537;DHT22;30245;51.966;6.292;2022-11-15T00:38:35;14.00;60.70
44537;DHT22;30245;51.966;6.292;2022-11-15T00:41:02;14.10;60.60
44537;DHT22;30245;51.966;6.292;2022-11-15T00:43:28;14.10;60.80
44537;DHT22;30245;51.966;6.292;2022-11-15T00:45:54;14.00;60.80
44537;DHT22;30245;51.966;6.292;2022-11-15T00:48:20;14.00;61.00
44537;DHT22;30245;51.966;6.292;2022-11-15T00:50:45;14.00;61.10
44537;DHT22;30245;51.966;6.292;2022-11-15T00:53:11;14.10;61.90
44537;DHT22;30245;51.966;6.292;2022-11-15T00:55:36;14.00;61.20
44537;DHT22;30245;51.966;6.292;2022-11-15T00:58:02;14.10;61.20
44537;DHT22;30245;51.966;6.292;2022-11-15T01:00:27;14.10;61.10
44537;DHT22;30245;51.966;6.292;2022-11-15T01:02:53;14.20;61.10
44537;DHT22;30245;51.966;6.292;2022-11-15T01:05:19;14.20;61.00
44537;DHT22;30245;51.966;6.292;2022-11-15T01:07:45;14.20;61.00
44537;DHT22;30245;51.966;6.292;2022-11-15T01:10:10;14.30;61.10
44537;DHT22;30245;51.966;6.292;2022-11-15T01:12:36;14.30;61.10
44537;DHT22;30245;51.966;6.292;2022-11-15T01:15:02;14.20;61.10
44537;DHT22;30245;51.966;6.292;2022-11-15T01:17:28;14.30;61.30
44537;DHT22;30245;51.966;6.292;2022-11-15T01:19:53;14.30;61.30
44537;DHT22;30245;51.966;6.292;2022-11-15T01:22:19;14.30;61.50
44537;DHT22;30245;51.966;6.292;2022-11-15T01:24:45;14.30;61.60
44537;DHT22;30245;51.966;6.292;2022-11-15T01:27:11;14.30;61.60
44537;DHT22;30245;51.966;6.292;2022-11-15T01:29:36;14.30;61.70
44537;DHT22;30245;51.966;6.292;2022-11-15T01:32:02;14.40;61.80
44537;DHT22;30245;51.966;6.292;2022-11-15T01:34:27;14.40;61.70
44537;DHT22;30245;51.966;6.292;2022-11-15T01:36:53;14.50;61.80
44537;DHT22;30245;51.966;6.292;2022-11-15T01:39:18;14.40;62.10
44537;DHT22;30245;51.966;6.292;2022-11-15T01:41:44;14.40;62.90
44537;DHT22;30245;51.966;6.292;2022-11-15T01:44:34;14.50;62.40
44537;DHT22;30245;51.966;6.292;2022-11-15T01:49:39;14.50;62.30
44537;DHT22;30245;51.966;6.292;2022-11-15T01:52:07;14.50;62.30
44537;DHT22;30245;51.966;6.292;2022-11-15T01:54:34;14.60;62.00
44537;DHT22;30245;51.966;6.292;2022-11-15T01:57:03;14.70;62.40
44537;DHT22;30245;51.966;6.292;2022-11-15T01:59:30;14.70;61.80
44537;DHT22;30245;51.966;6.292;2022-11-15T02:01:56;14.60;61.80
44537;DHT22;30245;51.966;6.292;2022-11-15T02:04:37;14.70;62.00
44537;DHT22;30245;51.966;6.292;2022-11-15T02:07:04;14.70;62.10
44537;DHT22;30245;51.966;6.292;2022-11-15T02:09:30;14.70;62.20
44537;DHT22;30245;51.966;6.292;2022-11-15T02:11:56;14.70;62.30
44537;DHT22;30245;51.966;6.292;2022-11-15T02:14:24;14.70;62.40
44537;DHT22;30245;51.966;6.292;2022-11-15T02:17:17;14.70;62.40
44537;DHT22;30245;51.966;6.292;2022-11-15T02:20:19;14.70;62.50
44537;DHT22;30245;51.966;6.292;2022-11-15T02:23:03;14.70;62.40
44537;DHT22;30245;51.966;6.292;2022-11-15T02:28:40;14.80;62.40
44537;DHT22;30245;51.966;6.292;2022-11-15T02:31:36;14.80;62.40
44537;DHT22;30245;51.966;6.292;2022-11-15T02:43:00;14.90;62.90
44537;DHT22;30245;51.966;6.292;2022-11-15T02:45:53;14.90;62.50
44537;DHT22;30245;51.966;6.292;2022-11-15T02:48:22;14.90;62.60
44537;DHT22;30245;51.966;6.292;2022-11-15T02:50:49;14.90;62.70
44537;DHT22;30245;51.966;6.292;2022-11-15T02:53:15;14.90;62.70
44537;DHT22;30245;51.966;6.292;2022-11-15T02:55:46;15.00;62.70
44537;DHT22;30245;51.966;6.292;2022-11-15T03:09:39;15.00;63.10
44537;DHT22;30245;51.966;6.292;2022-11-15T03:14:57;15.00;63.30
44537;DHT22;30245;51.966;6.292;2022-11-15T03:17:30;15.10;63.30
44537;DHT22;30245;51.966;6.292;2022-11-15T03:20:04;15.10;63.20
44537;DHT22;30245;51.966;6.292;2022-11-15T03:22:35;15.20;63.20
44537;DHT22;30245;51.966;6.292;2022-11-15T03:25:05;15.20;63.10
44537;DHT22;30245;51.966;6.292;2022-11-15T03:27:36;15.20;63.10
44537;DHT22;30245;51.966;6.292;2022-11-15T03:30:06;15.30;63.20
44537;DHT22;30245;51.966;6.292;2022-11-15T03:32:37;15.30;63.00
44537;DHT22;30245;51.966;6.292;2022-11-15T03:35:24;15.30;63.10
44537;DHT22;30245;51.966;6.292;2022-11-15T03:38:07;15.30;63.10
44537;DHT22;30245;51.966;6.292;2022-11-15T03:40:44;15.30;63.20
44537;DHT22;30245;51.966;6.292;2022-11-15T03:43:30;15.30;63.20
44537;DHT22;30245;51.966;6.292;2022-11-15T03:46:04;15.40;63.30
44537;DHT22;30245;51.966;6.292;2022-11-15T03:48:37;15.50;62.80
44537;DHT22;30245;51.966;6.292;2022-11-15T03:51:04;15.50;62.70
44537;DHT22;30245;51.966;6.292;2022-11-15T03:53:30;15.60;62.70
44537;DHT22;30245;51.966;6.292;2022-11-15T03:55:57;15.60;62.70
44537;DHT22;30245;51.966;6.292;2022-11-15T03:58:23;15.60;62.80
44537;DHT22;30245;51.966;6.292;2022-11-15T04:00:48;15.60;62.90
44537;DHT22;30245;51.966;6.292;2022-11-15T04:03:14;15.60;63.10
44537;DHT22;30245;51.966;6.292;2022-11-15T04:05:39;15.60;63.20
44537;DHT22;30245;51.966;6.292;2022-11-15T04:08:05;15.60;63.40
44537;DHT22;30245;51.966;6.292;2022-11-15T04:10:30;15.60;63.40
44537;DHT22;30245;51.966;6.292;2022-11-15T04:12:56;15.60;63.40
44537;DHT22;30245;51.966;6.292;2022-11-15T04:15:23;15.60;63.50
44537;DHT22;30245;51.966;6.292;2022-11-15T04:17:50;15.60;63.70
44537;DHT22;30245;51.966;6.292;2022-11-15T04:23:06;15.60;64.00
44537;DHT22;30245;51.966;6.292;2022-11-15T04:25:52;15.60;64.10
44537;DHT22;30245;51.966;6.292;2022-11-15T04:28:19;15.60;64.00
44537;DHT22;30245;51.966;6.292;2022-11-15T04:30:45;15.70;64.70
44537;DHT22;30245;51.966;6.292;2022-11-15T04:33:10;15.80;64.10
44537;DHT22;30245;51.966;6.292;2022-11-15T04:35:36;15.80;64.10
44537;DHT22;30245;51.966;6.292;2022-11-15T04:38:04;15.80;64.10
44537;DHT22;30245;51.966;6.292;2022-11-15T04:40:30;15.80;64.00
44537;DHT22;30245;51.966;6.292;2022-11-15T04:42:56;15.80;64.10
44537;DHT22;30245;51.966;6.292;2022-11-15T04:45:21;15.80;64.30
44537;DHT22;30245;51.966;6.292;2022-11-15T04:47:47;15.90;64.40
44537;DHT22;30245;51.966;6.292;2022-11-15T04:50:14;15.90;64.40
44537;DHT22;30245;51.966;6.292;2022-11-15T04:52:41;15.90;64.40
44537;DHT22;30245;51.966;6.292;2022-11-15T04:55:08;16.00;64.30
44537;DHT22;30245;51.966;6.292;2022-11-15T04:57:34;16.10;64.30
44537;DHT22;30245;51.966;6.292;2022-11-15T05:00:00;16.10;64.30
44537;DHT22;30245;51.966;6.292;2022-11-15T05:02:25;16.10;64.20
44537;DHT22;30245;51.966;6.292;2022-11-15T05:05:11;16.20;64.10
44537;DHT22;30245;51.966;6.292;2022-11-15T05:07:36;16.20;64.00
44537;DHT22;30245;51.966;6.292;2022-11-15T05:10:02;16.20;64.00
44537;DHT22;30245;51.966;6.292;2022-11-15T05:12:28;16.30;64.10
44537;DHT22;30245;51.966;6.292;2022-11-15T05:14:53;16.30;64.20
44537;DHT22;30245;51.966;6.292;2022-11-15T05:17:19;16.30;64.30
44537;DHT22;30245;51.966;6.292;2022-11-15T05:19:44;16.30;64.20
44537;DHT22;30245;51.966;6.292;2022-11-15T05:22:10;16.30;64.10
44537;DHT22;30245;51.966;6.292;2022-11-15T05:24:35;16.30;64.30
44537;DHT22;30245;51.966;6.292;2022-11-15T05:27:01;16.40;64.40
44537;DHT22;30245;51.966;6.292;2022-11-15T05:29:26;16.40;64.40
44537;DHT22;30245;51.966;6.292;2022-11-15T05:31:52;16.40;64.40
44537;DHT22;30245;51.966;6.292;2022-11-15T05:34:18;16.40;64.40
44537;DHT22;30245;51.966;6.292;2022-11-15T05:36:43;16.50;64.30
44537;DHT22;30245;51.966;6.292;2022-11-15T05:39:11;16.50;64.20
44537;DHT22;30245;51.966;6.292;2022-11-15T05:41:56;16.50;64.20
44537;DHT22;30245;51.966;6.292;2022-11-15T05:44:23;16.60;64.30
44537;DHT22;30245;51.966;6.292;2022-11-15T05:46:51;16.60;64.40
44537;DHT22;30245;51.966;6.292;2022-11-15T05:49:23;16.60;64.40
44537;DHT22;30245;51.966;6.292;2022-11-15T05:51:51;16.60;64.30
44537;DHT22;30245;51.966;6.292;2022-11-15T05:54:20;16.60;64.40
44537;DHT22;30245;51.966;6.292;2022-11-15T05:56:46;16.60;64.60
44537;DHT22;30245;51.966;6.292;2022-11-15T05:59:12;16.60;64.70
44537;DHT22;30245;51.966;6.292;2022-11-15T06:01:38;16.60;64.80
44537;DHT22;30245;51.966;6.292;2022-11-15T06:04:04;16.60;64.90
44537;DHT22;30245;51.966;6.292;2022-11-15T06:06:30;16.60;65.50
44537;DHT22;30245;51.966;6.292;2022-11-15T06:08:55;16.60;64.90
44537;DHT22;30245;51.966;6.292;2022-11-15T06:11:21;16.60;65.00
44537;DHT22;30245;51.966;6.292;2022-11-15T06:13:46;16.50;65.20
44537;DHT22;30245;51.966;6.292;2022-11-15T06:16:12;16.60;65.30
44537;DHT22;30245;51.966;6.292;2022-11-15T06:18:38;16.60;65.20
44537;DHT22;30245;51.966;6.292;2022-11-15T06:21:04;16.70;65.20
44537;DHT22;30245;51.966;6.292;2022-11-15T06:23:34;16.70;65.10
44537;DHT22;30245;51.966;6.292;2022-11-15T06:26:00;16.70;65.00
44537;DHT22;30245;51.966;6.292;2022-11-15T06:28:30;16.70;65.00
44537;DHT22;30245;51.966;6.292;2022-11-15T06:31:02;16.70;65.10
44537;DHT22;30245;51.966;6.292;2022-11-15T06:33:28;16.70;65.20
44537;DHT22;30245;51.966;6.292;2022-11-15T06:35:54;16.80;65.10
44537;DHT22;30245;51.966;6.292;2022-11-15T06:38:19;16.80;65.10
44537;DHT22;30245;51.966;6.292;2022-11-15T06:40:45;16.80;65.00
44537;DHT22;30245;51.966;6.292;2022-11-15T06:43:10;16.80;65.00
44537;DHT22;30245;51.966;6.292;2022-11-15T06:45:36;16.90;65.20
44537;DHT22;30245;51.966;6.292;2022-11-15T06:48:01;16.80;65.20
44537;DHT22;30245;51.966;6.292;2022-11-15T06:50:27;16.80;65.30
44537;DHT22;30245;51.966;6.292;2022-11-15T06:52:53;16.90;65.20
44537;DHT22;30245;51.966;6.292;2022-11-15T06:55:19;16.90;65.10
44537;DHT22;30245;51.966;6.292;2022-11-15T06:57:50;16.90;65.10
44537;DHT22;30245;51.966;6.292;2022-11-15T07:00:17;16.90;65.40
44537;DHT22;30245;51.966;6.292;2022-11-15T07:02:43;16.80;65.60
44537;DHT22;30245;51.966;6.292;2022-11-15T07:05:09;16.80;65.70
44537;DHT22;30245;51.966;6.292;2022-11-15T07:07:35;16.70;65.70
44537;DHT22;30245;51.966;6.292;2022-11-15T07:10:01;16.70;65.90
44537;DHT22;30245;51.966;6.292;2022-11-15T07:12:27;16.80;66.10
44537;DHT22;30245;51.966;6.292;2022-11-15T07:14:53;16.70;66.00
44537;DHT22;30245;51.966;6.292;2022-11-15T07:17:18;16.80;66.00
44537;DHT22;30245;51.966;6.292;2022-11-15T07:19:44;16.80;66.00
44537;DHT22;30245;51.966;6.292;2022-11-15T07:22:09;16.80;66.00
44537;DHT22;30245;51.966;6.292;2022-11-15T07:24:35;16.80;66.00
44537;DHT22;30245;51.966;6.292;2022-11-15T07:27:00;16.80;65.90
44537;DHT22;30245;51.966;6.292;2022-11-15T07:29:26;16.90;66.00
44537;DHT22;30245;51.966;6.292;2022-11-15T07:31:51;16.80;65.90
44537;DHT22;30245;51.966;6.292;2022-11-15T07:34:17;16.80;65.90
44537;DHT22;30245;51.966;6.292;2022-11-15T07:36:43;16.80;66.00
44537;DHT22;30245;51.966;6.292;2022-11-15T07:39:08;16.80;66.00
44537;DHT22;30245;51.966;6.292;2022-11-15T07:41:34;16.80;66.00
44537;DHT22;30245;51.966;6.292;2022-11-15T07:44:00;16.80;66.70
44537;DHT22;30245;51.966;6.292;2022-11-15T07:46:26;16.90;66.10
44537;DHT22;30245;51.966;6.292;2022-11-15T07:48:52;16.90;66.10
44537;DHT22;30245;51.966;6.292;2022-11-15T07:51:18;16.90;65.90
44537;DHT22;30245;51.966;6.292;2022-11-15T07:53:44;16.90;65.90
44537;DHT22;30245;51.966;6.292;2022-11-15T07:56:10;16.90;65.80
44537;DHT22;30245;51.966;6.292;2022-11-15T07:58:35;16.90;65.80
44537;DHT22;30245;51.966;6.292;2022-11-15T08:01:09;16.90;65.90
44537;DHT22;30245;51.966;6.292;2022-11-15T08:03:35;16.90;66.00
44537;DHT22;30245;51.966;6.292;2022-11-15T08:06:01;16.80;66.00
44537;DHT22;30245;51.966;6.292;2022-11-15T08:08:27;16.80;66.20
44537;DHT22;30245;51.966;6.292;2022-11-15T08:10:53;16.80;66.30
44537;DHT22;30245;51.966;6.292;2022-11-15T08:13:19;16.80;66.30
44537;DHT22;30245;51.966;6.292;2022-11-15T08:15:44;16.80;66.30
44537;DHT22;30245;51.966;6.292;2022-11-15T08:18:12;16.80;66.30
44537;DHT22;30245;51.966;6.292;2022-11-15T08:20:39;16.80;66.30
44537;DHT22;30245;51.966;6.292;2022-11-15T08:23:05;16.80;66.90
44537;DHT22;30245;51.966;6.292;2022-11-15T08:25:32;16.80;66.20
44537;DHT22;30245;51.966;6.292;2022-11-15T08:28:00;16.80;66.30
44537;DHT22;30245;51.966;6.292;2022-11-15T08:30:27;16.70;66.50
44537;DHT22;30245;51.966;6.292;2022-11-15T08:32:53;16.70;66.70
44537;DHT22;30245;51.966;6.292;2022-11-15T08:35:20;16.60;66.70
44537;DHT22;30245;51.966;6.292;2022-11-15T08:37:46;16.70;66.80
44537;DHT22;30245;51.966;6.292;2022-11-15T08:40:12;16.70;66.50
44537;DHT22;30245;51.966;6.292;2022-11-15T08:42:39;16.70;66.30
44537;DHT22;30245;51.966;6.292;2022-11-15T08:45:05;16.70;66.20
44537;DHT22;30245;51.966;6.292;2022-11-15T08:47:31;16.80;66.20
44537;DHT22;30245;51.966;6.292;2022-11-15T08:49:56;16.70;66.20
44537;DHT22;30245;51.966;6.292;2022-11-15T08:52:22;16.70;66.10
44537;DHT22;30245;51.966;6.292;2022-11-15T08:54:47;16.80;66.10
44537;DHT22;30245;51.966;6.292;2022-11-15T08:57:13;16.80;66.00
44537;DHT22;30245;51.966;6.292;2022-11-15T08:59:39;16.90;66.10
44537;DHT22;30245;51.966;6.292;2022-11-15T09:02:05;16.90;66.00
44537;DHT22;30245;51.966;6.292;2022-11-15T09:04:31;17.00;65.90
44537;DHT22;30245;51.966;6.292;2022-11-15T09:06:57;17.10;65.80
44537;DHT22;30245;51.966;6.292;2022-11-15T09:09:22;17.10;65.60
44537;DHT22;30245;51.966;6.292;2022-11-15T09:11:48;17.20;65.60
44537;DHT22;30245;51.966;6.292;2022-11-15T09:14:14;17.30;65.40
44537;DHT22;30245;51.966;6.292;2022-11-15T09:16:40;17.30;65.20
44537;DHT22;30245;51.966;6.292;2022-11-15T09:19:06;17.30;65.10
44537;DHT22;30245;51.966;6.292;2022-11-15T09:21:32;17.30;65.00
44537;DHT22;30245;51.966;6.292;2022-11-15T09:23:57;17.30;64.80
44537;DHT22;30245;51.966;6.292;2022-11-15T09:26:23;17.30;64.70
44537;DHT22;30245;51.966;6.292;2022-11-15T09:28:49;17.30;64.70
44537;DHT22;30245;51.966;6.292;2022-11-15T09:31:15;17.30;64.60
44537;DHT22;30245;51.966;6.292;2022-11-15T09:33:43;17.30;64.50
44537;DHT22;30245;51.966;6.292;2022-11-15T09:36:09;17.30;64.50
44537;DHT22;30245;51.966;6.292;2022-11-15T09:38:35;17.30;64.50
44537;DHT22;30245;51.966;6.292;2022-11-15T09:46:56;17.20;64.60
44537;DHT22;30245;51.966;6.292;2022-11-15T09:49:26;17.30;64.80
44537;DHT22;30245;51.966;6.292;2022-11-15T09:51:54;17.60;64.60
44537;DHT22;30245;51.966;6.292;2022-11-15T09:54:35;17.70;64.00
44537;DHT22;30245;51.966;6.292;2022-11-15T10:00:33;17.60;63.80
44537;DHT22;30245;51.966;6.292;2022-11-15T10:05:53;17.70;63.80
44537;DHT22;30245;51.966;6.292;2022-11-15T10:08:25;17.70;63.70
44537;DHT22;30245;51.966;6.292;2022-11-15T10:10:58;17.70;63.60
44537;DHT22;30245;51.966;6.292;2022-11-15T10:13:26;17.80;63.40
44537;DHT22;30245;51.966;6.292;2022-11-15T10:16:01;17.90;63.70
44537;DHT22;30245;51.966;6.292;2022-11-15T10:18:53;18.20;63.60
44537;DHT22;30245;51.966;6.292;2022-11-15T10:21:30;18.60;63.10
44537;DHT22;30245;51.966;6.292;2022-11-15T10:23:58;19.00;62.40
44537;DHT22;30245;51.966;6.292;2022-11-15T10:26:24;19.30;61.70
44537;DHT22;30245;51.966;6.292;2022-11-15T10:28:50;19.50;61.10
44537;DHT22;30245;51.966;6.292;2022-11-15T10:31:27;19.60;60.80
44537;DHT22;30245;51.966;6.292;2022-11-15T10:34:20;19.70;60.10
44537;DHT22;30245;51.966;6.292;2022-11-15T10:37:00;19.90;60.00
44537;DHT22;30245;51.966;6.292;2022-11-15T10:39:27;20.00;58.60
44537;DHT22;30245;51.966;6.292;2022-11-15T10:41:53;19.90;58.30
44537;DHT22;30245;51.966;6.292;2022-11-15T10:44:21;19.80;58.20
44537;DHT22;30245;51.966;6.292;2022-11-15T10:47:03;19.70;58.40
44537;DHT22;30245;51.966;6.292;2022-11-15T10:49:31;19.70;58.20
44537;DHT22;30245;51.966;6.292;2022-11-15T10:54:30;19.70;57.20
44537;DHT22;30245;51.966;6.292;2022-11-15T10:56:59;19.60;57.30
44537;DHT22;30245;51.966;6.292;2022-11-15T10:59:31;19.60;57.20
44537;DHT22;30245;51.966;6.292;2022-11-15T11:01:59;19.60;57.10
44537;DHT22;30245;51.966;6.292;2022-11-15T11:04:25;19.60;56.70
44537;DHT22;30245;51.966;6.292;2022-11-15T11:06:53;19.50;56.60
44537;DHT22;30245;51.966;6.292;2022-11-15T11:11:51;19.80;57.00
44537;DHT22;30245;51.966;6.292;2022-11-15T11:16:50;20.20;55.70
44537;DHT22;30245;51.966;6.292;2022-11-15T11:24:59;20.50;54.50
44537;DHT22;30245;51.966;6.292;2022-11-15T11:30:17;20.50;52.70
44537;DHT22;30245;51.966;6.292;2022-11-15T11:38:32;20.30;52.30
44537;DHT22;30245;51.966;6.292;2022-11-15T11:49:08;20.60;51.30
44537;DHT22;30245;51.966;6.292;2022-11-15T11:51:41;20.80;51.10
44537;DHT22;30245;51.966;6.292;2022-11-15T11:54:25;21.10;50.20
44537;DHT22;30245;51.966;6.292;2022-11-15T11:56:54;21.20;48.80
44537;DHT22;30245;51.966;6.292;2022-11-15T12:05:03;21.40;47.90
44537;DHT22;30245;51.966;6.292;2022-11-15T12:07:34;21.40;48.00
44537;DHT22;30245;51.966;6.292;2022-11-15T12:10:23;21.60;47.70
44537;DHT22;30245;51.966;6.292;2022-11-15T12:15:37;21.60;46.90
44537;DHT22;30245;51.966;6.292;2022-11-15T12:18:04;21.70;46.70
44537;DHT22;30245;51.966;6.292;2022-11-15T12:20:37;21.80;46.40
44537;DHT22;30245;51.966;6.292;2022-11-15T12:23:19;21.80;46.10
44537;DHT22;30245;51.966;6.292;2022-11-15T12:25:50;21.80;45.70
44537;DHT22;30245;51.966;6.292;2022-11-15T12:28:45;21.80;45.10
44537;DHT22;30245;51.966;6.292;2022-11-15T12:31:27;21.80;44.60
44537;DHT22;30245;51.966;6.292;2022-11-15T12:33:56;21.80;44.40
44537;DHT22;30245;51.966;6.292;2022-11-15T12:38:59;22.00;43.60
44537;DHT22;30245;51.966;6.292;2022-11-15T12:41:32;21.90;43.50
44537;DHT22;30245;51.966;6.292;2022-11-15T12:43:59;22.00;43.40
44537;DHT22;30245;51.966;6.292;2022-11-15T12:49:11;21.90;43.10
44537;DHT22;30245;51.966;6.292;2022-11-15T13:02:40;22.20;43.30
44537;DHT22;30245;51.966;6.292;2022-11-15T13:31:03;22.10;42.70
44537;DHT22;30245;51.966;6.292;2022-11-15T13:33:39;22.10;42.60
44537;DHT22;30245;51.966;6.292;2022-11-15T13:36:30;22.20;42.60
44537;DHT22;30245;51.966;6.292;2022-11-15T13:39:03;22.20;42.50
44537;DHT22;30245;51.966;6.292;2022-11-15T13:41:32;22.20;42.40
44537;DHT22;30245;51.966;6.292;2022-11-15T13:43:59;22.00;42.40
44537;DHT22;30245;51.966;6.292;2022-11-15T13:46:30;21.80;42.70
44537;DHT22;30245;51.966;6.292;2022-11-15T13:48:56;21.60;43.20
44537;DHT22;30245;51.966;6.292;2022-11-15T13:51:28;21.40;43.40
44537;DHT22;30245;51.966;6.292;2022-11-15T13:53:58;21.40;43.60
44537;DHT22;30245;51.966;6.292;2022-11-15T13:56:27;21.20;43.40
44537;DHT22;30245;51.966;6.292;2022-11-15T13:58:53;21.10;43.60
44537;DHT22;30245;51.966;6.292;2022-11-15T14:01:21;21.10;43.70
44537;DHT22;30245;51.966;6.292;2022-11-15T14:04:09;21.00;43.70
44537;DHT22;30245;51.966;6.292;2022-11-15T14:06:45;21.00;43.70
44537;DHT22;30245;51.966;6.292;2022-11-15T14:09:24;21.10;43.40
44537;DHT22;30245;51.966;6.292;2022-11-15T14:11:55;21.10;43.40
44537;DHT22;30245;51.966;6.292;2022-11-15T14:14:23;21.10;43.40
44537;DHT22;30245;51.966;6.292;2022-11-15T14:16:54;21.00;43.40
44537;DHT22;30245;51.966;6.292;2022-11-15T14:24:33;21.00;43.40
44537;DHT22;30245;51.966;6.292;2022-11-15T14:27:23;20.90;43.30
44537;DHT22;30245;51.966;6.292;2022-11-15T14:29:49;20.80;43.30
44537;DHT22;30245;51.966;6.292;2022-11-15T14:32:24;20.70;43.50
44537;DHT22;30245;51.966;6.292;2022-11-15T14:35:00;20.60;43.60
44537;DHT22;30245;51.966;6.292;2022-11-15T14:37:29;20.50;43.70
44537;DHT22;30245;51.966;6.292;2022-11-15T14:40:04;20.40;43.70
44537;DHT22;30245;51.966;6.292;2022-11-15T14:42:33;20.20;43.70
44537;DHT22;30245;51.966;6.292;2022-11-15T14:44:58;20.10;44.00
44537;DHT22;30245;51.966;6.292;2022-11-15T14:47:27;20.00;44.00
44537;DHT22;30245;51.966;6.292;2022-11-15T14:49:52;19.90;44.00
44537;DHT22;30245;51.966;6.292;2022-11-15T14:54:51;19.70;44.10
44537;DHT22;30245;51.966;6.292;2022-11-15T14:57:17;19.70;44.20
44537;DHT22;30245;51.966;6.292;2022-11-15T14:59:42;19.60;44.40
44537;DHT22;30245;51.966;6.292;2022-11-15T15:02:18;19.50;44.60
44537;DHT22;30245;51.966;6.292;2022-11-15T15:04:43;19.40;44.60
44537;DHT22;30245;51.966;6.292;2022-11-15T15:07:09;19.30;44.60
44537;DHT22;30245;51.966;6.292;2022-11-15T15:09:34;19.30;44.70
44537;DHT22;30245;51.966;6.292;2022-11-15T15:12:12;19.20;44.80
44537;DHT22;30245;51.966;6.292;2022-11-15T15:14:39;19.10;44.90
44537;DHT22;30245;51.966;6.292;2022-11-15T15:17:04;19.10;45.10
44537;DHT22;30245;51.966;6.292;2022-11-15T15:19:30;19.10;45.20
44537;DHT22;30245;51.966;6.292;2022-11-15T15:21:55;19.00;45.20
44537;DHT22;30245;51.966;6.292;2022-11-15T15:24:21;19.00;45.20
44537;DHT22;30245;51.966;6.292;2022-11-15T15:26:46;19.00;45.30
44537;DHT22;30245;51.966;6.292;2022-11-15T15:29:12;19.00;45.50
44537;DHT22;30245;51.966;6.292;2022-11-15T15:31:37;18.90;45.60
44537;DHT22;30245;51.966;6.292;2022-11-15T15:34:04;18.80;45.70
44537;DHT22;30245;51.966;6.292;2022-11-15T15:36:30;18.80;45.80
44537;DHT22;30245;51.966;6.292;2022-11-15T15:38:55;18.80;45.80
44537;DHT22;30245;51.966;6.292;2022-11-15T15:41:21;18.70;45.80
44537;DHT22;30245;51.966;6.292;2022-11-15T15:43:46;18.70;45.90
44537;DHT22;30245;51.966;6.292;2022-11-15T15:46:17;18.60;45.90
44537;DHT22;30245;51.966;6.292;2022-11-15T15:48:43;18.60;46.00
44537;DHT22;30245;51.966;6.292;2022-11-15T15:51:09;18.50;46.10
44537;DHT22;30245;51.966;6.292;2022-11-15T15:53:34;18.50;46.30
44537;DHT22;30245;51.966;6.292;2022-11-15T15:56:00;18.50;46.40
44537;DHT22;30245;51.966;6.292;2022-11-15T15:58:26;18.40;46.40
44537;DHT22;30245;51.966;6.292;2022-11-15T16:00:52;18.40;46.50
44537;DHT22;30245;51.966;6.292;2022-11-15T16:03:17;18.40;46.60
44537;DHT22;30245;51.966;6.292;2022-11-15T16:05:43;18.30;46.60
44537;DHT22;30245;51.966;6.292;2022-11-15T16:08:20;18.30;46.80
44537;DHT22;30245;51.966;6.292;2022-11-15T16:10:46;18.30;46.90
44537;DHT22;30245;51.966;6.292;2022-11-15T16:13:12;18.30;46.90
44537;DHT22;30245;51.966;6.292;2022-11-15T16:15:38;18.30;47.10
44537;DHT22;30245;51.966;6.292;2022-11-15T16:18:04;18.30;47.10
44537;DHT22;30245;51.966;6.292;2022-11-15T16:23:09;18.30;47.20
44537;DHT22;30245;51.966;6.292;2022-11-15T16:25:41;18.30;47.30
44537;DHT22;30245;51.966;6.292;2022-11-15T16:31:11;18.20;47.60
44537;DHT22;30245;51.966;6.292;2022-11-15T16:33:38;18.20;47.80
44537;DHT22;30245;51.966;6.292;2022-11-15T16:36:05;18.20;47.80
44537;DHT22;30245;51.966;6.292;2022-11-15T16:38:31;18.20;47.90
44537;DHT22;30245;51.966;6.292;2022-11-15T16:40:57;18.20;48.10
44537;DHT22;30245;51.966;6.292;2022-11-15T16:43:23;18.20;48.00
44537;DHT22;30245;51.966;6.292;2022-11-15T16:45:50;18.20;48.20
44537;DHT22;30245;51.966;6.292;2022-11-15T16:48:27;18.20;48.20
44537;DHT22;30245;51.966;6.292;2022-11-15T16:50:57;18.20;48.30
44537;DHT22;30245;51.966;6.292;2022-11-15T16:53:23;18.20;48.40
44537;DHT22;30245;51.966;6.292;2022-11-15T16:55:49;18.20;48.50
44537;DHT22;30245;51.966;6.292;2022-11-15T16:58:15;18.20;48.60
44537;DHT22;30245;51.966;6.292;2022-11-15T17:00:40;18.20;48.60
44537;DHT22;30245;51.966;6.292;2022-11-15T17:03:06;18.20;48.60
44537;DHT22;30245;51.966;6.292;2022-11-15T17:05:31;18.30;48.70
44537;DHT22;30245;51.966;6.292;2022-11-15T17:07:57;18.30;48.70
44537;DHT22;30245;51.966;6.292;2022-11-15T17:10:32;18.40;48.70
44537;DHT22;30245;51.966;6.292;2022-11-15T17:12:58;18.40;48.70
44537;DHT22;30245;51.966;6.292;2022-11-15T17:15:24;18.40;48.80
44537;DHT22;30245;51.966;6.292;2022-11-15T17:17:51;18.40;48.90
44537;DHT22;30245;51.966;6.292;2022-11-15T17:20:19;18.40;49.00
44537;DHT22;30245;51.966;6.292;2022-11-15T17:22:44;18.40;49.10
44537;DHT22;30245;51.966;6.292;2022-11-15T17:25:12;18.40;49.20
44537;DHT22;30245;51.966;6.292;2022-11-15T17:27:37;18.40;49.30
44537;DHT22;30245;51.966;6.292;2022-11-15T17:30:04;18.40;49.40
44537;DHT22;30245;51.966;6.292;2022-11-15T17:32:30;18.40;49.60
44537;DHT22;30245;51.966;6.292;2022-11-15T17:34:55;18.40;49.60
44537;DHT22;30245;51.966;6.292;2022-11-15T17:37:21;18.40;49.60
44537;DHT22;30245;51.966;6.292;2022-11-15T17:39:53;18.50;49.70
44537;DHT22;30245;51.966;6.292;2022-11-15T17:42:28;18.40;49.80
44537;DHT22;30245;51.966;6.292;2022-11-15T17:44:53;18.40;49.80
44537;DHT22;30245;51.966;6.292;2022-11-15T17:47:19;18.50;49.90
44537;DHT22;30245;51.966;6.292;2022-11-15T17:49:45;18.50;49.90
44537;DHT22;30245;51.966;6.292;2022-11-15T17:52:10;18.50;50.00
44537;DHT22;30245;51.966;6.292;2022-11-15T17:54:36;18.50;50.00
44537;DHT22;30245;51.966;6.292;2022-11-15T17:57:02;18.50;50.10